Moulton, Iowa
Current Conditions -  °F | °C
As of 9:10 PM on Monday 26 Jan 2015 (Local Time) from KTVK Reporting Station
Broken Clouds Broken Clouds  
Wind Chill: 37°   Ceiling: 3200
Heat Index: 43°   Visibility: 10mi
Dew Point: 37°   Wind: 12mph
Humidity: 81%   Direction: 320°NW
Pressure: 29.94"   Gusts: NA
Location:  40.69°N, 92.68°W
Report Text: KTVK 270310Z AUTO 32010KT 10SM BKN032 06/03 A2994 RMK AO2
Loading
Personal Weather Stations






























Interactive Weather Map New forecast layout! Learn more

10-Day Weather Forecast

Advertisements
Track Severe Weather on mobile